sensor_id;sensor_type;location;lat;lon;timestamp;temperature;humidity
54202;DHT22;40108;53.152;5.844;2022-08-02T00:00:17;12.90;85.60
54202;DHT22;40108;53.152;5.844;2022-08-02T00:02:45;12.80;85.60
54202;DHT22;40108;53.152;5.844;2022-08-02T00:05:12;12.80;85.60
54202;DHT22;40108;53.152;5.844;2022-08-02T00:07:38;12.80;85.70
54202;DHT22;40108;53.152;5.844;2022-08-02T00:10:05;12.80;85.80
54202;DHT22;40108;53.152;5.844;2022-08-02T00:12:31;12.80;85.80
54202;DHT22;40108;53.152;5.844;2022-08-02T00:14:57;12.70;86.00
54202;DHT22;40108;53.152;5.844;2022-08-02T00:17:23;12.70;86.10
54202;DHT22;40108;53.152;5.844;2022-08-02T00:19:49;12.60;86.30
54202;DHT22;40108;53.152;5.844;2022-08-02T00:22:15;12.60;86.30
54202;DHT22;40108;53.152;5.844;2022-08-02T00:24:41;12.60;86.30
54202;DHT22;40108;53.152;5.844;2022-08-02T00:27:07;12.60;86.40
54202;DHT22;40108;53.152;5.844;2022-08-02T00:29:34;12.60;86.40
54202;DHT22;40108;53.152;5.844;2022-08-02T00:32:02;12.60;86.40
54202;DHT22;40108;53.152;5.844;2022-08-02T00:34:35;12.60;86.40
54202;DHT22;40108;53.152;5.844;2022-08-02T00:37:03;12.50;86.50
54202;DHT22;40108;53.152;5.844;2022-08-02T00:39:29;12.50;86.50
54202;DHT22;40108;53.152;5.844;2022-08-02T00:41:57;12.40;86.60
54202;DHT22;40108;53.152;5.844;2022-08-02T00:44:23;12.40;86.70
54202;DHT22;40108;53.152;5.844;2022-08-02T00:46:48;12.40;86.80
54202;DHT22;40108;53.152;5.844;2022-08-02T00:49:14;12.30;86.80
54202;DHT22;40108;53.152;5.844;2022-08-02T00:51:40;12.30;86.90
54202;DHT22;40108;53.152;5.844;2022-08-02T00:54:07;12.30;87.00
54202;DHT22;40108;53.152;5.844;2022-08-02T00:56:35;12.30;86.90
54202;DHT22;40108;53.152;5.844;2022-08-02T00:59:02;12.30;87.00
54202;DHT22;40108;53.152;5.844;2022-08-02T01:01:28;12.30;87.00
54202;DHT22;40108;53.152;5.844;2022-08-02T01:04:08;12.30;86.90
54202;DHT22;40108;53.152;5.844;2022-08-02T01:06:37;12.30;87.10
54202;DHT22;40108;53.152;5.844;2022-08-02T01:09:04;12.30;87.10
54202;DHT22;40108;53.152;5.844;2022-08-02T01:11:31;12.30;87.00
54202;DHT22;40108;53.152;5.844;2022-08-02T01:14:09;12.30;87.10
54202;DHT22;40108;53.152;5.844;2022-08-02T01:16:42;12.30;87.10
54202;DHT22;40108;53.152;5.844;2022-08-02T01:19:25;12.30;87.10
54202;DHT22;40108;53.152;5.844;2022-08-02T01:25:38;12.30;87.10
54202;DHT22;40108;53.152;5.844;2022-08-02T01:33:50;12.20;86.90
54202;DHT22;40108;53.152;5.844;2022-08-02T01:36:20;12.20;87.00
54202;DHT22;40108;53.152;5.844;2022-08-02T01:38:49;12.20;87.00
54202;DHT22;40108;53.152;5.844;2022-08-02T01:41:23;12.20;87.00
54202;DHT22;40108;53.152;5.844;2022-08-02T01:43:52;12.20;87.10
54202;DHT22;40108;53.152;5.844;2022-08-02T01:46:20;12.20;87.10
54202;DHT22;40108;53.152;5.844;2022-08-02T01:48:52;12.20;87.20
54202;DHT22;40108;53.152;5.844;2022-08-02T01:51:19;12.10;87.20
54202;DHT22;40108;53.152;5.844;2022-08-02T01:54:10;12.10;87.30
54202;DHT22;40108;53.152;5.844;2022-08-02T01:56:37;12.10;87.30
54202;DHT22;40108;53.152;5.844;2022-08-02T01:59:08;12.10;87.50
54202;DHT22;40108;53.152;5.844;2022-08-02T02:01:38;12.10;87.60
54202;DHT22;40108;53.152;5.844;2022-08-02T02:04:07;12.10;87.70
54202;DHT22;40108;53.152;5.844;2022-08-02T02:06:35;12.00;87.70
54202;DHT22;40108;53.152;5.844;2022-08-02T02:09:02;12.10;87.80
54202;DHT22;40108;53.152;5.844;2022-08-02T02:11:29;12.00;87.80
54202;DHT22;40108;53.152;5.844;2022-08-02T02:14:02;12.00;87.90
54202;DHT22;40108;53.152;5.844;2022-08-02T02:16:31;12.00;88.00
54202;DHT22;40108;53.152;5.844;2022-08-02T02:19:00;11.90;88.10
54202;DHT22;40108;53.152;5.844;2022-08-02T02:21:26;11.90;88.10
54202;DHT22;40108;53.152;5.844;2022-08-02T02:23:52;11.90;88.20
54202;DHT22;40108;53.152;5.844;2022-08-02T02:26:18;11.90;88.20
54202;DHT22;40108;53.152;5.844;2022-08-02T02:28:46;11.90;88.20
54202;DHT22;40108;53.152;5.844;2022-08-02T02:31:15;11.90;88.10
54202;DHT22;40108;53.152;5.844;2022-08-02T02:33:57;12.00;88.00
54202;DHT22;40108;53.152;5.844;2022-08-02T02:36:25;12.10;87.90
54202;DHT22;40108;53.152;5.844;2022-08-02T02:38:59;12.10;87.90
54202;DHT22;40108;53.152;5.844;2022-08-02T02:41:26;12.10;87.90
54202;DHT22;40108;53.152;5.844;2022-08-02T02:43:59;12.10;88.00
54202;DHT22;40108;53.152;5.844;2022-08-02T02:46:28;12.10;88.10
54202;DHT22;40108;53.152;5.844;2022-08-02T02:48:55;12.10;88.10
54202;DHT22;40108;53.152;5.844;2022-08-02T02:51:21;12.10;88.20
54202;DHT22;40108;53.152;5.844;2022-08-02T02:53:48;12.10;88.30
54202;DHT22;40108;53.152;5.844;2022-08-02T02:56:16;12.10;88.60
54202;DHT22;40108;53.152;5.844;2022-08-02T02:58:43;12.10;88.70
54202;DHT22;40108;53.152;5.844;2022-08-02T03:01:11;12.10;88.80
54202;DHT22;40108;53.152;5.844;2022-08-02T03:03:53;12.10;89.00
54202;DHT22;40108;53.152;5.844;2022-08-02T03:06:19;12.10;89.00
54202;DHT22;40108;53.152;5.844;2022-08-02T03:08:45;12.10;89.00
54202;DHT22;40108;53.152;5.844;2022-08-02T03:11:14;12.10;88.80
54202;DHT22;40108;53.152;5.844;2022-08-02T03:13:40;12.20;88.60
54202;DHT22;40108;53.152;5.844;2022-08-02T03:16:07;12.20;88.50
54202;DHT22;40108;53.152;5.844;2022-08-02T03:18:37;12.20;88.50
54202;DHT22;40108;53.152;5.844;2022-08-02T03:21:09;12.20;88.50
54202;DHT22;40108;53.152;5.844;2022-08-02T03:23:40;12.20;88.40
54202;DHT22;40108;53.152;5.844;2022-08-02T03:26:07;12.20;88.40
54202;DHT22;40108;53.152;5.844;2022-08-02T03:28:33;12.20;88.50
54202;DHT22;40108;53.152;5.844;2022-08-02T03:30:59;12.20;88.50
54202;DHT22;40108;53.152;5.844;2022-08-02T03:33:26;12.20;88.50
54202;DHT22;40108;53.152;5.844;2022-08-02T03:35:55;12.20;88.50
54202;DHT22;40108;53.152;5.844;2022-08-02T03:38:25;12.20;88.60
54202;DHT22;40108;53.152;5.844;2022-08-02T03:40:52;12.20;88.70
54202;DHT22;40108;53.152;5.844;2022-08-02T03:43:19;12.20;88.80
54202;DHT22;40108;53.152;5.844;2022-08-02T03:45:47;12.30;88.80
54202;DHT22;40108;53.152;5.844;2022-08-02T03:48:16;12.30;88.80
54202;DHT22;40108;53.152;5.844;2022-08-02T03:50:46;12.30;88.80
54202;DHT22;40108;53.152;5.844;2022-08-02T03:53:13;12.20;88.80
54202;DHT22;40108;53.152;5.844;2022-08-02T03:55:41;12.30;88.80
54202;DHT22;40108;53.152;5.844;2022-08-02T03:58:07;12.30;88.80
54202;DHT22;40108;53.152;5.844;2022-08-02T04:00:33;12.30;88.90
54202;DHT22;40108;53.152;5.844;2022-08-02T04:02:59;12.20;89.00
54202;DHT22;40108;53.152;5.844;2022-08-02T04:05:25;12.30;89.10
54202;DHT22;40108;53.152;5.844;2022-08-02T04:07:51;12.30;89.00
54202;DHT22;40108;53.152;5.844;2022-08-02T04:10:17;12.30;89.10
54202;DHT22;40108;53.152;5.844;2022-08-02T04:12:43;12.30;89.10
54202;DHT22;40108;53.152;5.844;2022-08-02T04:15:12;12.30;89.20
54202;DHT22;40108;53.152;5.844;2022-08-02T04:17:49;12.30;89.20
54202;DHT22;40108;53.152;5.844;2022-08-02T04:20:26;12.30;89.20
54202;DHT22;40108;53.152;5.844;2022-08-02T04:23:00;12.30;89.20
54202;DHT22;40108;53.152;5.844;2022-08-02T04:25:26;12.40;89.20
54202;DHT22;40108;53.152;5.844;2022-08-02T04:27:52;12.40;89.30
54202;DHT22;40108;53.152;5.844;2022-08-02T04:30:22;12.40;89.30
54202;DHT22;40108;53.152;5.844;2022-08-02T04:32:48;12.40;89.40
54202;DHT22;40108;53.152;5.844;2022-08-02T04:35:14;12.60;89.40
54202;DHT22;40108;53.152;5.844;2022-08-02T04:37:40;12.60;89.40
54202;DHT22;40108;53.152;5.844;2022-08-02T04:40:11;12.60;89.30
54202;DHT22;40108;53.152;5.844;2022-08-02T04:42:37;12.70;89.20
54202;DHT22;40108;53.152;5.844;2022-08-02T04:45:08;12.70;89.20
54202;DHT22;40108;53.152;5.844;2022-08-02T04:47:44;12.80;89.10
54202;DHT22;40108;53.152;5.844;2022-08-02T04:50:10;12.90;89.00
54202;DHT22;40108;53.152;5.844;2022-08-02T04:52:36;12.90;89.00
54202;DHT22;40108;53.152;5.844;2022-08-02T04:55:02;13.00;88.90
54202;DHT22;40108;53.152;5.844;2022-08-02T04:57:30;13.10;88.90
54202;DHT22;40108;53.152;5.844;2022-08-02T05:00:15;13.10;88.90
54202;DHT22;40108;53.152;5.844;2022-08-02T05:02:41;13.20;88.80
54202;DHT22;40108;53.152;5.844;2022-08-02T05:05:07;13.20;88.60
54202;DHT22;40108;53.152;5.844;2022-08-02T05:07:32;13.20;88.50
54202;DHT22;40108;53.152;5.844;2022-08-02T05:10:03;13.20;88.40
54202;DHT22;40108;53.152;5.844;2022-08-02T05:12:32;13.30;88.40
54202;DHT22;40108;53.152;5.844;2022-08-02T05:14:57;13.30;88.50
54202;DHT22;40108;53.152;5.844;2022-08-02T05:17:23;13.30;88.40
54202;DHT22;40108;53.152;5.844;2022-08-02T05:19:49;13.40;88.50
54202;DHT22;40108;53.152;5.844;2022-08-02T05:22:15;13.40;88.60
54202;DHT22;40108;53.152;5.844;2022-08-02T05:24:40;13.50;88.60
54202;DHT22;40108;53.152;5.844;2022-08-02T05:27:06;13.60;88.50
54202;DHT22;40108;53.152;5.844;2022-08-02T05:29:32;13.70;88.20
54202;DHT22;40108;53.152;5.844;2022-08-02T05:31:58;13.90;87.70
54202;DHT22;40108;53.152;5.844;2022-08-02T05:34:29;14.10;87.20
54202;DHT22;40108;53.152;5.844;2022-08-02T05:36:55;14.40;86.70
54202;DHT22;40108;53.152;5.844;2022-08-02T05:39:21;14.60;86.10
54202;DHT22;40108;53.152;5.844;2022-08-02T05:41:46;14.80;85.80
54202;DHT22;40108;53.152;5.844;2022-08-02T05:44:14;15.00;85.30
54202;DHT22;40108;53.152;5.844;2022-08-02T05:46:40;15.10;84.00
54202;DHT22;40108;53.152;5.844;2022-08-02T05:49:08;15.40;83.30
54202;DHT22;40108;53.152;5.844;2022-08-02T05:51:38;15.50;83.30
54202;DHT22;40108;53.152;5.844;2022-08-02T05:54:17;15.60;83.50
54202;DHT22;40108;53.152;5.844;2022-08-02T05:57:00;15.70;82.90
54202;DHT22;40108;53.152;5.844;2022-08-02T06:02:02;15.90;82.30
54202;DHT22;40108;53.152;5.844;2022-08-02T06:04:36;15.90;81.80
54202;DHT22;40108;53.152;5.844;2022-08-02T06:07:09;16.00;82.00
54202;DHT22;40108;53.152;5.844;2022-08-02T06:09:37;16.00;81.80
54202;DHT22;40108;53.152;5.844;2022-08-02T06:12:04;16.10;82.10
54202;DHT22;40108;53.152;5.844;2022-08-02T06:14:33;16.10;82.40
54202;DHT22;40108;53.152;5.844;2022-08-02T06:17:03;16.10;81.80
54202;DHT22;40108;53.152;5.844;2022-08-02T06:19:32;16.20;81.80
54202;DHT22;40108;53.152;5.844;2022-08-02T06:22:04;16.20;81.50
54202;DHT22;40108;53.152;5.844;2022-08-02T06:24:45;16.30;81.50
54202;DHT22;40108;53.152;5.844;2022-08-02T06:27:26;16.40;81.50
54202;DHT22;40108;53.152;5.844;2022-08-02T06:29:53;16.40;81.80
54202;DHT22;40108;53.152;5.844;2022-08-02T06:32:21;16.40;81.90
54202;DHT22;40108;53.152;5.844;2022-08-02T06:34:47;16.50;81.80
54202;DHT22;40108;53.152;5.844;2022-08-02T06:45:36;17.10;78.10
54202;DHT22;40108;53.152;5.844;2022-08-02T06:48:02;17.20;78.20
54202;DHT22;40108;53.152;5.844;2022-08-02T06:50:31;17.30;76.30
54202;DHT22;40108;53.152;5.844;2022-08-02T06:52:57;17.50;76.30
54202;DHT22;40108;53.152;5.844;2022-08-02T06:55:26;17.50;76.70
54202;DHT22;40108;53.152;5.844;2022-08-02T06:57:54;17.50;76.10
54202;DHT22;40108;53.152;5.844;2022-08-02T07:00:22;17.50;76.10
54202;DHT22;40108;53.152;5.844;2022-08-02T07:02:48;17.60;76.30
54202;DHT22;40108;53.152;5.844;2022-08-02T07:05:14;17.80;75.70
54202;DHT22;40108;53.152;5.844;2022-08-02T07:07:40;18.10;74.70
54202;DHT22;40108;53.152;5.844;2022-08-02T07:10:08;18.30;74.40
54202;DHT22;40108;53.152;5.844;2022-08-02T07:12:34;18.60;74.00
54202;DHT22;40108;53.152;5.844;2022-08-02T07:15:03;18.80;73.30
54202;DHT22;40108;53.152;5.844;2022-08-02T07:17:29;19.10;71.40
54202;DHT22;40108;53.152;5.844;2022-08-02T07:19:58;19.20;71.50
54202;DHT22;40108;53.152;5.844;2022-08-02T07:22:27;19.30;69.70
54202;DHT22;40108;53.152;5.844;2022-08-02T07:24:57;19.40;69.20
54202;DHT22;40108;53.152;5.844;2022-08-02T07:27:24;19.40;69.20
54202;DHT22;40108;53.152;5.844;2022-08-02T07:29:51;19.50;69.40
54202;DHT22;40108;53.152;5.844;2022-08-02T07:32:21;19.70;69.50
54202;DHT22;40108;53.152;5.844;2022-08-02T07:34:47;20.00;68.60
54202;DHT22;40108;53.152;5.844;2022-08-02T07:37:13;20.10;67.60
54202;DHT22;40108;53.152;5.844;2022-08-02T07:39:39;20.20;65.90
54202;DHT22;40108;53.152;5.844;2022-08-02T07:42:05;20.40;64.80
54202;DHT22;40108;53.152;5.844;2022-08-02T07:44:33;20.50;66.40
54202;DHT22;40108;53.152;5.844;2022-08-02T07:47:04;20.60;64.80
54202;DHT22;40108;53.152;5.844;2022-08-02T07:49:30;20.60;63.50
54202;DHT22;40108;53.152;5.844;2022-08-02T07:51:58;20.70;63.50
54202;DHT22;40108;53.152;5.844;2022-08-02T07:54:24;20.60;62.30
54202;DHT22;40108;53.152;5.844;2022-08-02T07:56:50;20.60;63.70
54202;DHT22;40108;53.152;5.844;2022-08-02T07:59:18;20.60;63.90
54202;DHT22;40108;53.152;5.844;2022-08-02T08:01:46;20.60;65.20
54202;DHT22;40108;53.152;5.844;2022-08-02T08:04:14;20.60;65.20
54202;DHT22;40108;53.152;5.844;2022-08-02T08:06:40;20.80;64.50
54202;DHT22;40108;53.152;5.844;2022-08-02T08:09:06;21.00;64.60
54202;DHT22;40108;53.152;5.844;2022-08-02T08:11:32;21.10;64.60
54202;DHT22;40108;53.152;5.844;2022-08-02T08:13:58;21.30;65.30
54202;DHT22;40108;53.152;5.844;2022-08-02T08:16:24;21.40;63.90
54202;DHT22;40108;53.152;5.844;2022-08-02T08:18:51;21.60;63.70
54202;DHT22;40108;53.152;5.844;2022-08-02T08:21:17;21.80;63.70
54202;DHT22;40108;53.152;5.844;2022-08-02T08:23:43;21.90;63.60
54202;DHT22;40108;53.152;5.844;2022-08-02T08:26:08;22.10;63.40
54202;DHT22;40108;53.152;5.844;2022-08-02T08:28:34;22.10;63.20
54202;DHT22;40108;53.152;5.844;2022-08-02T08:31:00;22.40;63.70
54202;DHT22;40108;53.152;5.844;2022-08-02T08:33:27;22.40;62.40
54202;DHT22;40108;53.152;5.844;2022-08-02T08:35:54;22.40;63.00
54202;DHT22;40108;53.152;5.844;2022-08-02T08:38:20;22.30;62.90
54202;DHT22;40108;53.152;5.844;2022-08-02T08:40:50;22.40;63.60
54202;DHT22;40108;53.152;5.844;2022-08-02T08:43:16;22.60;63.60
54202;DHT22;40108;53.152;5.844;2022-08-02T08:45:47;22.60;63.30
54202;DHT22;40108;53.152;5.844;2022-08-02T08:48:16;22.60;63.40
54202;DHT22;40108;53.152;5.844;2022-08-02T08:51:07;22.50;63.80
54202;DHT22;40108;53.152;5.844;2022-08-02T08:53:43;22.60;63.90
54202;DHT22;40108;53.152;5.844;2022-08-02T08:56:12;22.70;63.80
54202;DHT22;40108;53.152;5.844;2022-08-02T08:58:39;22.70;62.50
54202;DHT22;40108;53.152;5.844;2022-08-02T09:01:05;22.90;62.70
54202;DHT22;40108;53.152;5.844;2022-08-02T09:03:31;23.10;63.20
54202;DHT22;40108;53.152;5.844;2022-08-02T09:05:57;23.10;62.00
54202;DHT22;40108;53.152;5.844;2022-08-02T09:08:25;23.30;61.50
54202;DHT22;40108;53.152;5.844;2022-08-02T09:10:51;23.10;60.30
54202;DHT22;40108;53.152;5.844;2022-08-02T09:13:25;22.90;61.90
54202;DHT22;40108;53.152;5.844;2022-08-02T09:16:00;22.80;62.30
54202;DHT22;40108;53.152;5.844;2022-08-02T09:18:36;22.90;62.30
54202;DHT22;40108;53.152;5.844;2022-08-02T09:21:06;23.10;62.10
54202;DHT22;40108;53.152;5.844;2022-08-02T09:23:41;23.30;63.70
54202;DHT22;40108;53.152;5.844;2022-08-02T09:26:09;23.50;63.70
54202;DHT22;40108;53.152;5.844;2022-08-02T09:28:39;23.60;62.70
54202;DHT22;40108;53.152;5.844;2022-08-02T09:31:14;23.90;62.10
54202;DHT22;40108;53.152;5.844;2022-08-02T09:33:41;24.10;62.30
54202;DHT22;40108;53.152;5.844;2022-08-02T09:36:12;24.20;61.70
54202;DHT22;40108;53.152;5.844;2022-08-02T09:38:39;24.20;60.60
54202;DHT22;40108;53.152;5.844;2022-08-02T09:41:22;24.10;60.90
54202;DHT22;40108;53.152;5.844;2022-08-02T09:43:49;24.10;62.10
54202;DHT22;40108;53.152;5.844;2022-08-02T09:46:18;24.20;62.10
54202;DHT22;40108;53.152;5.844;2022-08-02T09:48:49;24.00;62.20
54202;DHT22;40108;53.152;5.844;2022-08-02T09:51:23;24.10;63.10
54202;DHT22;40108;53.152;5.844;2022-08-02T09:53:54;24.00;63.20
54202;DHT22;40108;53.152;5.844;2022-08-02T09:56:21;24.00;64.20
54202;DHT22;40108;53.152;5.844;2022-08-02T09:58:52;24.10;64.70
54202;DHT22;40108;53.152;5.844;2022-08-02T10:01:34;24.00;64.60
54202;DHT22;40108;53.152;5.844;2022-08-02T10:04:03;24.00;65.10
54202;DHT22;40108;53.152;5.844;2022-08-02T10:06:30;24.10;64.20
54202;DHT22;40108;53.152;5.844;2022-08-02T10:08:56;24.30;66.10
54202;DHT22;40108;53.152;5.844;2022-08-02T10:11:26;24.60;64.50
54202;DHT22;40108;53.152;5.844;2022-08-02T10:13:53;25.00;65.10
54202;DHT22;40108;53.152;5.844;2022-08-02T10:16:20;25.20;64.40
54202;DHT22;40108;53.152;5.844;2022-08-02T10:18:54;25.40;63.40
54202;DHT22;40108;53.152;5.844;2022-08-02T10:21:27;25.40;63.70
54202;DHT22;40108;53.152;5.844;2022-08-02T10:24:07;25.10;63.20
54202;DHT22;40108;53.152;5.844;2022-08-02T10:26:34;24.80;64.80
54202;DHT22;40108;53.152;5.844;2022-08-02T10:29:00;24.70;65.60
54202;DHT22;40108;53.152;5.844;2022-08-02T10:31:32;24.50;66.50
54202;DHT22;40108;53.152;5.844;2022-08-02T10:34:00;24.50;67.50
54202;DHT22;40108;53.152;5.844;2022-08-02T10:36:31;24.40;66.70
54202;DHT22;40108;53.152;5.844;2022-08-02T10:39:16;24.40;68.00
54202;DHT22;40108;53.152;5.844;2022-08-02T10:44:29;24.60;67.30
54202;DHT22;40108;53.152;5.844;2022-08-02T10:52:18;24.50;66.60
54202;DHT22;40108;53.152;5.844;2022-08-02T10:54:54;24.30;67.50
54202;DHT22;40108;53.152;5.844;2022-08-02T10:57:23;24.30;68.00
54202;DHT22;40108;53.152;5.844;2022-08-02T10:59:55;24.30;68.60
54202;DHT22;40108;53.152;5.844;2022-08-02T11:02:38;24.20;69.00
54202;DHT22;40108;53.152;5.844;2022-08-02T11:05:26;24.10;68.60
54202;DHT22;40108;53.152;5.844;2022-08-02T11:07:52;23.90;69.60
54202;DHT22;40108;53.152;5.844;2022-08-02T11:10:35;23.80;70.50
54202;DHT22;40108;53.152;5.844;2022-08-02T11:13:13;23.80;71.10
54202;DHT22;40108;53.152;5.844;2022-08-02T11:15:49;23.80;71.20
54202;DHT22;40108;53.152;5.844;2022-08-02T11:18:16;23.90;71.20
54202;DHT22;40108;53.152;5.844;2022-08-02T11:20:42;24.00;70.60
54202;DHT22;40108;53.152;5.844;2022-08-02T11:23:34;24.20;70.50
54202;DHT22;40108;53.152;5.844;2022-08-02T11:26:02;24.30;68.40
54202;DHT22;40108;53.152;5.844;2022-08-02T11:28:29;24.30;68.60
54202;DHT22;40108;53.152;5.844;2022-08-02T11:30:59;24.20;68.10
54202;DHT22;40108;53.152;5.844;2022-08-02T11:33:33;24.30;67.80
54202;DHT22;40108;53.152;5.844;2022-08-02T11:36:05;24.10;67.60
54202;DHT22;40108;53.152;5.844;2022-08-02T11:38:39;24.00;69.30
54202;DHT22;40108;53.152;5.844;2022-08-02T11:41:20;23.80;70.50
54202;DHT22;40108;53.152;5.844;2022-08-02T11:43:49;23.70;69.70
54202;DHT22;40108;53.152;5.844;2022-08-02T11:46:18;23.60;70.70
54202;DHT22;40108;53.152;5.844;2022-08-02T11:48:43;23.60;70.50
54202;DHT22;40108;53.152;5.844;2022-08-02T11:51:13;23.50;71.40
54202;DHT22;40108;53.152;5.844;2022-08-02T11:53:51;23.50;71.20
54202;DHT22;40108;53.152;5.844;2022-08-02T11:56:28;23.30;71.50
54202;DHT22;40108;53.152;5.844;2022-08-02T11:59:06;23.30;72.40
54202;DHT22;40108;53.152;5.844;2022-08-02T12:01:33;23.20;72.80
54202;DHT22;40108;53.152;5.844;2022-08-02T12:04:01;23.20;72.50
54202;DHT22;40108;53.152;5.844;2022-08-02T12:06:29;23.20;72.60
54202;DHT22;40108;53.152;5.844;2022-08-02T12:09:10;23.10;73.30
54202;DHT22;40108;53.152;5.844;2022-08-02T12:11:37;23.20;73.30
54202;DHT22;40108;53.152;5.844;2022-08-02T12:14:04;23.10;73.50
54202;DHT22;40108;53.152;5.844;2022-08-02T12:16:38;23.10;73.50
54202;DHT22;40108;53.152;5.844;2022-08-02T12:19:24;23.00;73.60
54202;DHT22;40108;53.152;5.844;2022-08-02T12:22:17;23.00;73.20
54202;DHT22;40108;53.152;5.844;2022-08-02T12:24:50;23.00;73.90
54202;DHT22;40108;53.152;5.844;2022-08-02T12:27:37;22.90;74.10
54202;DHT22;40108;53.152;5.844;2022-08-02T12:30:17;22.90;73.50
54202;DHT22;40108;53.152;5.844;2022-08-02T12:32:44;22.80;73.90
54202;DHT22;40108;53.152;5.844;2022-08-02T12:35:15;22.80;73.90
54202;DHT22;40108;53.152;5.844;2022-08-02T12:37:43;22.70;74.30
54202;DHT22;40108;53.152;5.844;2022-08-02T12:40:30;22.70;75.10
54202;DHT22;40108;53.152;5.844;2022-08-02T12:42:58;22.70;74.90
54202;DHT22;40108;53.152;5.844;2022-08-02T12:45:26;22.60;74.90
54202;DHT22;40108;53.152;5.844;2022-08-02T12:47:55;22.60;75.10
54202;DHT22;40108;53.152;5.844;2022-08-02T12:50:30;22.70;75.20
54202;DHT22;40108;53.152;5.844;2022-08-02T12:53:12;22.80;75.70
54202;DHT22;40108;53.152;5.844;2022-08-02T12:55:56;22.80;75.20
54202;DHT22;40108;53.152;5.844;2022-08-02T12:58:25;22.90;76.00
54202;DHT22;40108;53.152;5.844;2022-08-02T13:01:00;23.00;75.50
54202;DHT22;40108;53.152;5.844;2022-08-02T13:03:27;23.10;75.50
54202;DHT22;40108;53.152;5.844;2022-08-02T13:05:53;23.10;75.40
54202;DHT22;40108;53.152;5.844;2022-08-02T13:08:19;23.10;75.70
54202;DHT22;40108;53.152;5.844;2022-08-02T13:10:44;23.20;75.20
54202;DHT22;40108;53.152;5.844;2022-08-02T13:13:10;23.40;75.40
54202;DHT22;40108;53.152;5.844;2022-08-02T13:15:36;23.50;74.80
54202;DHT22;40108;53.152;5.844;2022-08-02T13:18:02;23.50;74.10
54202;DHT22;40108;53.152;5.844;2022-08-02T13:20:29;23.60;73.80
54202;DHT22;40108;53.152;5.844;2022-08-02T13:22:55;23.60;70.90
54202;DHT22;40108;53.152;5.844;2022-08-02T13:25:21;23.60;70.50
54202;DHT22;40108;53.152;5.844;2022-08-02T13:27:50;23.70;71.40
54202;DHT22;40108;53.152;5.844;2022-08-02T13:30:17;23.70;71.40
54202;DHT22;40108;53.152;5.844;2022-08-02T13:32:43;23.70;69.90
54202;DHT22;40108;53.152;5.844;2022-08-02T13:35:09;23.70;69.80
54202;DHT22;40108;53.152;5.844;2022-08-02T13:37:36;23.70;69.70
54202;DHT22;40108;53.152;5.844;2022-08-02T13:40:02;23.80;69.60
54202;DHT22;40108;53.152;5.844;2022-08-02T13:42:28;23.70;68.30
54202;DHT22;40108;53.152;5.844;2022-08-02T13:44:57;23.80;67.20
54202;DHT22;40108;53.152;5.844;2022-08-02T13:47:23;23.80;68.10
54202;DHT22;40108;53.152;5.844;2022-08-02T13:49:49;23.80;69.00
54202;DHT22;40108;53.152;5.844;2022-08-02T13:52:15;23.80;69.60
54202;DHT22;40108;53.152;5.844;2022-08-02T13:54:41;23.80;70.00
54202;DHT22;40108;53.152;5.844;2022-08-02T13:57:07;23.80;70.60
54202;DHT22;40108;53.152;5.844;2022-08-02T13:59:36;23.80;69.60
54202;DHT22;40108;53.152;5.844;2022-08-02T14:02:01;23.70;69.70
54202;DHT22;40108;53.152;5.844;2022-08-02T14:04:27;23.70;70.50
54202;DHT22;40108;53.152;5.844;2022-08-02T14:06:56;23.70;69.60
54202;DHT22;40108;53.152;5.844;2022-08-02T14:09:22;23.80;68.60
54202;DHT22;40108;53.152;5.844;2022-08-02T14:11:48;23.80;68.70
54202;DHT22;40108;53.152;5.844;2022-08-02T14:14:14;24.00;68.00
54202;DHT22;40108;53.152;5.844;2022-08-02T14:16:40;24.10;68.30
54202;DHT22;40108;53.152;5.844;2022-08-02T14:19:06;24.40;66.70
54202;DHT22;40108;53.152;5.844;2022-08-02T14:21:34;24.60;66.00
54202;DHT22;40108;53.152;5.844;2022-08-02T14:24:02;24.60;63.80
54202;DHT22;40108;53.152;5.844;2022-08-02T14:26:28;24.60;60.40
54202;DHT22;40108;53.152;5.844;2022-08-02T14:28:54;24.70;61.70
54202;DHT22;40108;53.152;5.844;2022-08-02T14:31:20;24.70;61.30
54202;DHT22;40108;53.152;5.844;2022-08-02T14:33:46;24.70;61.40
54202;DHT22;40108;53.152;5.844;2022-08-02T14:36:13;24.70;61.20
54202;DHT22;40108;53.152;5.844;2022-08-02T14:38:39;24.70;60.60
54202;DHT22;40108;53.152;5.844;2022-08-02T14:41:05;24.60;62.00
54202;DHT22;40108;53.152;5.844;2022-08-02T14:43:31;24.80;61.30
54202;DHT22;40108;53.152;5.844;2022-08-02T14:46:15;24.90;62.00
54202;DHT22;40108;53.152;5.844;2022-08-02T14:48:40;25.00;62.00
54202;DHT22;40108;53.152;5.844;2022-08-02T14:51:06;25.00;61.10
54202;DHT22;40108;53.152;5.844;2022-08-02T14:53:32;25.10;61.60
54202;DHT22;40108;53.152;5.844;2022-08-02T14:55:59;25.10;61.20
54202;DHT22;40108;53.152;5.844;2022-08-02T14:58:25;25.10;61.10
54202;DHT22;40108;53.152;5.844;2022-08-02T15:00:51;25.10;61.10
54202;DHT22;40108;53.152;5.844;2022-08-02T15:03:19;25.00;61.20
54202;DHT22;40108;53.152;5.844;2022-08-02T15:05:45;24.90;60.70
54202;DHT22;40108;53.152;5.844;2022-08-02T15:08:14;25.00;62.20
54202;DHT22;40108;53.152;5.844;2022-08-02T15:10:39;25.10;60.90
54202;DHT22;40108;53.152;5.844;2022-08-02T15:13:05;25.10;60.80
54202;DHT22;40108;53.152;5.844;2022-08-02T15:15:31;25.00;60.60
54202;DHT22;40108;53.152;5.844;2022-08-02T15:17:57;25.00;61.10
54202;DHT22;40108;53.152;5.844;2022-08-02T15:20:23;25.10;60.70
54202;DHT22;40108;53.152;5.844;2022-08-02T15:22:49;25.10;60.10
54202;DHT22;40108;53.152;5.844;2022-08-02T15:25:15;25.00;61.40
54202;DHT22;40108;53.152;5.844;2022-08-02T15:27:45;25.10;60.80
54202;DHT22;40108;53.152;5.844;2022-08-02T15:30:13;25.10;61.90
54202;DHT22;40108;53.152;5.844;2022-08-02T15:32:39;25.10;62.20
54202;DHT22;40108;53.152;5.844;2022-08-02T15:35:05;25.10;61.00
54202;DHT22;40108;53.152;5.844;2022-08-02T15:37:31;25.10;62.60
54202;DHT22;40108;53.152;5.844;2022-08-02T15:39:58;25.10;63.40
54202;DHT22;40108;53.152;5.844;2022-08-02T15:42:24;25.10;64.30
54202;DHT22;40108;53.152;5.844;2022-08-02T15:44:50;25.10;65.10
54202;DHT22;40108;53.152;5.844;2022-08-02T15:47:15;25.10;65.30
54202;DHT22;40108;53.152;5.844;2022-08-02T15:49:43;25.00;65.50
54202;DHT22;40108;53.152;5.844;2022-08-02T15:52:10;24.90;66.70
54202;DHT22;40108;53.152;5.844;2022-08-02T15:54:39;24.90;68.10
54202;DHT22;40108;53.152;5.844;2022-08-02T15:57:05;24.90;69.00
54202;DHT22;40108;53.152;5.844;2022-08-02T15:59:31;24.90;68.50
54202;DHT22;40108;53.152;5.844;2022-08-02T16:01:57;24.80;68.60
54202;DHT22;40108;53.152;5.844;2022-08-02T16:04:22;24.80;68.60
54202;DHT22;40108;53.152;5.844;2022-08-02T16:06:51;24.70;69.10
54202;DHT22;40108;53.152;5.844;2022-08-02T16:09:16;24.70;69.20